Дата Время Давление Темп. Влажн. Скор.ветра Напр.ветра Макс.ветер Осадки/час Осадки
24.05.19 11:00 743.6 12 86.9 1.1 55 4.9 0 0
24.05.19 10:00 743.4 11.2 89.1 1.8 107 4.5 0 0
24.05.19 09:00 743.1 11 91.4 1.7 104 3.8 0 0
24.05.19 08:00 742.7 11.4 92.6 1.6 96 4.3 0 0
24.05.19 07:00 742.5 11.1 93.6 1.7 46 3.8 0 0
24.05.19 06:00 742 11.1 93.5 1.8 40 3.7 0 0
24.05.19 05:00 741.8 11.4 92.2 2 26 4.5 0 0
24.05.19 04:00 741.3 12 91.4 1.9 38 4.7 0 0
24.05.19 03:00 741.1 12.6 91.8 1.8 25 3.6 0 0
24.05.19 02:00 740.9 12.7 92.6 1.6 36 4.3 0 0
24.05.19 01:00 740.5 13.7 91.8 1.8 37 4 0 0
24.05.19 00:00 739.9 14.4 91.4 1.6 35 3.1 0 3
23.05.19 23:00 739.5 15.2 91.6 1.6 45 2.5 0 3
23.05.19 22:00 739.2 15.3 91.6 0.8 0 1.6 0 3
23.05.19 21:00 739 16 90.4 0.7 345 1.5 0 3
23.05.19 20:00 738.6 17 85.5 0.9 342 3 0 3
23.05.19 19:00 738.2 17.3 86.9 0.8 27 3.6 0 3
23.05.19 18:00 738 16.5 87.3 1.7 38 6.5 3 3
23.05.19 17:00 736.5 23.7 50.9 0.8 50 3.2 0 0
23.05.19 16:00 737 23.2 50.7 1.8 46 4.4 0 0
23.05.19 15:00 737.3 21.5 53.3 2.6 34 8.4 0 0
23.05.19 14:00 736.4 27.1 34.4 0.8 321 7 0 0
23.05.19 13:00 736.5 26.4 36.9 1.4 5 5.2 0 0
23.05.19 12:00 736.3 26.6 40.4 1.4 250 5 0 0